Time;durP1;ratioP1;P1;durP2;ratioP2;P2;SDS_P1;SDS_P2;PMS_P1;PMS_P2;Temp;Humidity;BMP_temperature;BMP_pressure;BME280_temperature;BME280_humidity;BME280_pressure;Samples;Min_cycle;Max_cycle;Signal;HPM_P1;HPM_P2
2023/09/04 00:01:22;;;;;;;11.02;9.93;;;15.20;99.90;;;;;;4949256;28;20039;-48
2023/09/04 00:03:47;;;;;;;11.70;10.05;;;15.20;99.90;;;;;;4949461;28;20051;-47
2023/09/04 00:06:13;;;;;;;11.52;10.05;;;15.20;99.90;;;;;;4948071;28;20083;-49
2023/09/04 00:08:39;;;;;;;10.50;9.38;;;15.10;99.90;;;;;;4949182;28;20047;-49
2023/09/04 00:11:04;;;;;;;12.15;9.80;;;15.10;99.90;;;;;;4948515;28;20043;-50
2023/09/04 00:13:30;;;;;;;12.27;10.77;;;15.20;99.90;;;;;;4948640;28;20086;-48
2023/09/04 00:15:56;;;;;;;12.05;9.77;;;15.10;99.90;;;;;;4948509;29;20085;-49
2023/09/04 00:18:25;;;;;;;11.35;10.23;;;15.10;99.90;;;;;;4948798;28;20155;-48
2023/09/04 00:20:53;;;;;;;12.18;10.88;;;15.20;99.90;;;;;;4948969;28;20043;-48
2023/09/04 00:23:19;;;;;;;12.70;11.45;;;15.10;99.90;;;;;;4948518;29;20047;-49
2023/09/04 00:25:45;;;;;;;13.13;11.38;;;15.00;99.90;;;;;;4948564;28;20071;-50
2023/09/04 00:28:13;;;;;;;12.88;11.20;;;14.90;99.90;;;;;;4949064;28;20069;-51
2023/09/04 00:30:38;;;;;;;12.60;11.30;;;14.90;99.90;;;;;;4962677;28;20114;-50
2023/09/04 00:33:04;;;;;;;12.68;11.48;;;14.90;99.90;;;;;;4948652;28;20051;-48
2023/09/04 00:35:30;;;;;;;13.35;12.05;;;15.00;99.90;;;;;;4963504;28;20449;-49
2023/09/04 00:37:55;;;;;;;15.57;11.48;;;14.90;99.90;;;;;;4948673;28;20125;-49
2023/09/04 00:40:21;;;;;;;12.23;11.02;;;14.90;99.90;;;;;;4947516;28;20398;-49
2023/09/04 00:42:47;;;;;;;12.25;11.07;;;14.90;99.90;;;;;;4956603;28;20072;-49
2023/09/04 00:45:12;;;;;;;12.40;11.20;;;14.90;99.90;;;;;;4951751;28;20047;-48
2023/09/04 00:47:44;;;;;;;12.55;11.23;;;14.90;99.90;;;;;;4948170;28;20051;-47
2023/09/04 00:50:15;;;;;;;13.13;11.27;;;14.90;99.90;;;;;;4954850;28;20078;-48
2023/09/04 00:52:41;;;;;;;13.50;12.18;;;14.80;99.90;;;;;;4967410;28;20054;-48
2023/09/04 00:55:08;;;;;;;11.40;10.30;;;14.70;99.90;;;;;;4962242;28;20130;-50
2023/09/04 00:57:34;;;;;;;12.45;9.80;;;14.70;99.90;;;;;;4955863;28;20699;-50
2023/09/04 01:00:05;;;;;;;11.48;10.27;;;14.60;99.90;;;;;;4964343;28;20089;-48
2023/09/04 01:02:31;;;;;;;11.30;10.20;;;14.60;99.90;;;;;;4951595;28;20058;-49
2023/09/04 01:04:57;;;;;;;11.40;10.30;;;14.60;99.90;;;;;;4951836;28;20054;-48
2023/09/04 01:07:23;;;;;;;11.55;10.23;;;14.60;99.90;;;;;;4946960;28;20039;-48
2023/09/04 01:09:48;;;;;;;11.98;10.77;;;14.60;99.90;;;;;;4948051;28;20045;-50
2023/09/04 01:12:22;;;;;;;11.80;10.70;;;14.50;99.90;;;;;;4946077;29;20043;-48
2023/09/04 01:14:52;;;;;;;12.60;11.30;;;14.40;99.90;;;;;;4947398;29;20055;-48
2023/09/04 01:17:18;;;;;;;13.43;11.00;;;14.40;99.90;;;;;;4946642;29;20053;-51
2023/09/04 01:19:45;;;;;;;12.38;10.75;;;14.30;99.90;;;;;;4947219;28;20087;-49
2023/09/04 01:22:11;;;;;;;11.60;10.50;;;14.30;99.90;;;;;;4946188;29;20134;-48
2023/09/04 01:24:38;;;;;;;10.88;9.82;;;14.30;99.90;;;;;;4947492;28;20122;-50
2023/09/04 01:27:25;;;;;;;11.75;10.63;;;14.30;99.90;;;;;;4947058;28;20047;-46
2023/09/04 01:30:10;;;;;;;11.73;10.63;;;14.30;99.90;;;;;;4947793;28;20047;-50
2023/09/04 01:32:41;;;;;;;12.63;11.38;;;14.30;99.90;;;;;;4947564;28;20047;-48
2023/09/04 01:35:10;;;;;;;14.05;11.95;;;14.20;99.90;;;;;;4947074;29;20473;-48
2023/09/04 01:37:36;;;;;;;12.45;11.18;;;14.20;99.90;;;;;;4946366;29;20054;-51
2023/09/04 01:40:06;;;;;;;11.70;10.52;;;14.20;99.90;;;;;;4946948;28;20040;-49
2023/09/04 01:42:31;;;;;;;12.50;10.93;;;14.10;99.90;;;;;;4946537;28;20645;-47
2023/09/04 01:44:58;;;;;;;12.38;10.10;;;14.20;99.90;;;;;;4947269;29;20051;-49
2023/09/04 01:47:24;;;;;;;14.32;9.52;;;14.00;99.90;;;;;;4946745;29;20078;-49
2023/09/04 01:49:49;;;;;;;11.38;10.15;;;14.00;99.90;;;;;;4947670;28;20841;-48
2023/09/04 01:52:15;;;;;;;12.55;9.82;;;14.00;99.90;;;;;;4947533;29;20043;-47
2023/09/04 01:54:41;;;;;;;10.73;9.65;;;14.00;99.90;;;;;;4930604;28;20047;-46
2023/09/04 01:57:06;;;;;;;11.63;9.82;;;14.00;99.90;;;;;;4956309;28;20047;-50
2023/09/04 01:59:35;;;;;;;11.02;9.90;;;14.00;99.90;;;;;;4945793;29;20043;-48
2023/09/04 02:02:00;;;;;;;11.80;10.52;;;13.90;99.90;;;;;;4947335;29;20134;-48
2023/09/04 02:04:26;;;;;;;11.45;10.15;;;13.90;99.90;;;;;;4946497;29;20138;-47
2023/09/04 02:06:52;;;;;;;12.15;10.45;;;14.00;99.90;;;;;;4947682;29;20153;-50
2023/09/04 02:09:17;;;;;;;12.32;10.65;;;13.80;99.90;;;;;;4946887;29;20073;-48
2023/09/04 02:11:43;;;;;;;13.63;11.55;;;14.10;99.90;;;;;;4946258;29;20042;-49
2023/09/04 02:14:08;;;;;;;13.85;11.95;;;13.90;99.90;;;;;;4944935;28;20085;-47
2023/09/04 02:16:34;;;;;;;13.27;10.68;;;13.90;99.90;;;;;;4945890;29;20043;-50
2023/09/04 02:19:01;;;;;;;12.27;11.00;;;13.90;99.90;;;;;;4946998;28;20675;-48
2023/09/04 02:21:26;;;;;;;12.35;11.02;;;13.90;99.90;;;;;;4946713;28;20043;-48
2023/09/04 02:23:52;;;;;;;13.13;11.82;;;13.90;99.90;;;;;;4960896;28;20606;-46
2023/09/04 02:26:18;;;;;;;14.88;11.65;;;13.90;99.90;;;;;;4944969;29;20054;-49
2023/09/04 02:28:43;;;;;;;14.82;11.40;;;13.90;99.90;;;;;;4946623;29;20050;-48
2023/09/04 02:31:11;;;;;;;12.95;10.63;;;13.90;99.90;;;;;;4945997;29;20118;-46
2023/09/04 02:33:37;;;;;;;13.57;11.48;;;13.90;99.90;;;;;;4945122;29;20051;-49
2023/09/04 02:36:03;;;;;;;12.18;10.98;;;13.90;99.90;;;;;;4946180;28;20043;-46
2023/09/04 02:38:29;;;;;;;10.90;9.80;;;13.90;99.90;;;;;;4946328;28;20062;-47
2023/09/04 02:40:54;;;;;;;11.82;10.18;;;13.80;99.90;;;;;;4945502;29;20054;-47
2023/09/04 02:43:20;;;;;;;10.88;9.73;;;13.90;99.90;;;;;;4946281;29;20055;-47
2023/09/04 02:45:47;;;;;;;9.57;8.63;;;13.80;99.90;;;;;;4946059;29;20426;-47
2023/09/04 02:48:12;;;;;;;11.82;8.85;;;13.70;99.90;;;;;;4945740;28;20058;-46
2023/09/04 02:50:42;;;;;;;10.25;9.15;;;13.70;99.90;;;;;;4946472;29;20063;-46
2023/09/04 02:53:08;;;;;;;15.80;10.10;;;13.70;99.90;;;;;;4950776;28;20552;-49
2023/09/04 02:55:33;;;;;;;11.93;9.05;;;13.70;99.90;;;;;;4959683;28;20031;-48
2023/09/04 02:57:59;;;;;;;12.35;10.43;;;13.70;99.90;;;;;;4953696;28;20059;-47
2023/09/04 03:00:25;;;;;;;12.00;10.10;;;13.90;99.90;;;;;;4946144;29;20039;-48
2023/09/04 03:02:50;;;;;;;11.90;10.57;;;13.70;99.90;;;;;;4946076;29;20054;-50
2023/09/04 03:05:16;;;;;;;13.00;10.40;;;13.60;99.90;;;;;;4958705;28;20078;-47
2023/09/04 03:07:42;;;;;;;13.48;11.30;;;13.60;99.90;;;;;;4964068;28;20047;-47
2023/09/04 03:10:08;;;;;;;12.85;11.52;;;13.90;99.90;;;;;;4963503;28;20457;-45
2023/09/04 03:12:34;;;;;;;11.93;10.10;;;13.60;99.90;;;;;;4952209;28;20055;-48
2023/09/04 03:15:02;;;;;;;13.13;10.75;;;13.60;99.90;;;;;;4945173;28;20055;-52
2023/09/04 03:17:29;;;;;;;10.98;9.88;;;13.80;99.90;;;;;;4945988;28;20450;-47
2023/09/04 03:19:57;;;;;;;12.45;9.00;;;13.50;99.90;;;;;;4946104;29;20055;-49
2023/09/04 03:22:23;;;;;;;11.57;8.98;;;13.40;99.90;;;;;;4945387;28;20119;-47
2023/09/04 03:24:50;;;;;;;12.85;9.27;;;13.40;99.90;;;;;;4952670;28;20095;-46
2023/09/04 03:27:16;;;;;;;10.48;9.40;;;13.40;99.90;;;;;;4964571;28;20066;-47
2023/09/04 03:29:43;;;;;;;11.60;9.15;;;13.40;99.90;;;;;;4963595;28;20125;-45
2023/09/04 03:32:08;;;;;;;11.57;9.45;;;13.40;99.90;;;;;;4964799;28;20042;-49
2023/09/04 03:34:34;;;;;;;8.93;8.02;;;13.40;99.90;;;;;;4964946;28;20066;-49
2023/09/04 03:37:00;;;;;;;11.15;8.65;;;13.30;99.90;;;;;;4965101;28;20042;-50
2023/09/04 03:39:25;;;;;;;10.65;8.57;;;13.30;99.90;;;;;;4964326;28;20039;-48
2023/09/04 03:41:51;;;;;;;10.77;8.05;;;13.30;99.90;;;;;;4964322;28;20046;-50
2023/09/04 03:44:18;;;;;;;11.00;8.75;;;13.30;99.90;;;;;;4964708;28;20050;-48
2023/09/04 03:46:43;;;;;;;9.75;8.75;;;13.20;99.90;;;;;;4964652;28;20043;-47
2023/09/04 03:49:09;;;;;;;14.52;9.52;;;13.20;99.90;;;;;;4964511;28;20057;-48
2023/09/04 03:51:35;;;;;;;15.90;9.57;;;13.20;99.90;;;;;;4964526;28;20118;-49
2023/09/04 03:54:04;;;;;;;10.75;9.43;;;13.10;99.90;;;;;;4964744;28;20094;-46
2023/09/04 03:56:30;;;;;;;10.52;8.90;;;13.10;99.90;;;;;;4957389;28;20038;-47
2023/09/04 03:58:59;;;;;;;12.63;9.40;;;13.10;99.90;;;;;;4947117;28;20045;-47
2023/09/04 04:01:27;;;;;;;17.95;9.40;;;13.10;99.90;;;;;;4946062;29;20398;-48
2023/09/04 04:03:53;;;;;;;9.38;8.25;;;13.10;99.90;;;;;;4943203;29;20157;-48
2023/09/04 04:06:22;;;;;;;10.90;8.23;;;13.10;99.90;;;;;;4945483;28;20522;-50
2023/09/04 04:08:49;;;;;;;9.55;8.65;;;13.10;99.90;;;;;;4944013;29;20086;-49
2023/09/04 04:11:15;;;;;;;12.13;8.98;;;13.10;99.90;;;;;;4944960;28;20074;-49
2023/09/04 04:13:41;;;;;;;11.30;9.35;;;13.10;99.90;;;;;;4944441;29;20055;-50
2023/09/04 04:16:07;;;;;;;12.00;9.38;;;13.10;99.90;;;;;;4945286;28;20039;-49
2023/09/04 04:18:32;;;;;;;10.65;9.55;;;13.10;99.90;;;;;;4944764;29;20469;-48
2023/09/04 04:20:58;;;;;;;12.00;8.68;;;13.10;99.90;;;;;;4945032;29;20118;-49
2023/09/04 04:23:24;;;;;;;9.75;8.75;;;13.00;99.90;;;;;;4945579;28;20126;-49
2023/09/04 04:25:49;;;;;;;10.15;8.40;;;13.00;99.90;;;;;;4944877;29;20134;-49
2023/09/04 04:28:18;;;;;;;10.00;8.32;;;13.00;99.90;;;;;;4945331;28;20482;-48
2023/09/04 04:30:44;;;;;;;10.00;8.55;;;13.00;99.90;;;;;;4944544;28;20126;-48
2023/09/04 04:33:09;;;;;;;12.98;8.93;;;13.00;99.90;;;;;;4945042;28;20137;-47
2023/09/04 04:35:35;;;;;;;9.85;8.85;;;12.90;99.90;;;;;;4944989;28;20126;-46
2023/09/04 04:38:00;;;;;;;9.45;8.45;;;12.90;99.90;;;;;;4950157;28;20704;-47
2023/09/04 04:40:26;;;;;;;10.73;9.13;;;13.00;99.90;;;;;;4966901;28;20081;-47
2023/09/04 04:42:52;;;;;;;9.02;8.13;;;12.90;99.90;;;;;;4967301;28;20039;-47
2023/09/04 04:45:18;;;;;;;10.77;8.40;;;12.90;99.90;;;;;;4966077;28;20043;-46
2023/09/04 04:47:44;;;;;;;11.27;7.90;;;12.90;99.90;;;;;;4967412;28;20050;-46
2023/09/04 04:50:10;;;;;;;10.40;8.73;;;12.90;99.90;;;;;;4967629;28;20042;-47
2023/09/04 04:52:35;;;;;;;11.00;8.63;;;12.90;99.90;;;;;;4967763;28;20051;-48
2023/09/04 04:55:01;;;;;;;10.07;8.77;;;12.90;99.90;;;;;;4950671;28;20047;-46
2023/09/04 04:57:27;;;;;;;9.35;8.45;;;12.90;99.90;;;;;;4958087;28;20445;-48
2023/09/04 04:59:53;;;;;;;10.85;9.60;;;12.90;99.90;;;;;;4967426;28;20204;-48
2023/09/04 05:02:20;;;;;;;12.20;10.50;;;12.90;99.90;;;;;;4967295;28;20038;-49
2023/09/04 05:04:47;;;;;;;12.35;10.75;;;12.90;99.90;;;;;;4966261;28;20386;-49
2023/09/04 05:07:13;;;;;;;13.85;11.88;;;13.00;99.90;;;;;;4948767;28;20199;-48
2023/09/04 05:09:38;;;;;;;13.65;12.18;;;12.90;99.90;;;;;;4954501;28;20170;-50
2023/09/04 05:12:05;;;;;;;13.95;12.43;;;12.90;99.90;;;;;;4954901;28;20077;-47
2023/09/04 05:14:30;;;;;;;15.40;13.60;;;12.90;99.90;;;;;;4946701;28;20063;-47
2023/09/04 05:16:56;;;;;;;15.48;12.05;;;13.20;99.90;;;;;;4946839;29;20055;-47
2023/09/04 05:19:22;;;;;;;12.27;11.07;;;12.90;99.90;;;;;;4946184;29;20058;-49
2023/09/04 05:21:47;;;;;;;14.05;12.65;;;12.90;99.90;;;;;;4946006;29;20389;-48
2023/09/04 05:24:13;;;;;;;15.57;12.68;;;13.00;99.90;;;;;;4947607;28;20127;-48
2023/09/04 05:26:39;;;;;;;15.43;12.38;;;13.10;99.90;;;;;;4946821;28;20055;-47
2023/09/04 05:29:05;;;;;;;15.00;12.70;;;13.00;99.90;;;;;;4962727;28;20039;-49
2023/09/04 05:31:31;;;;;;;14.90;12.95;;;13.10;99.90;;;;;;4951868;28;20050;-49
2023/09/04 05:33:57;;;;;;;17.27;13.18;;;13.10;99.90;;;;;;4967063;28;20177;-49
2023/09/04 05:36:22;;;;;;;14.95;13.45;;;13.20;99.90;;;;;;4966940;28;20188;-49
2023/09/04 05:38:48;;;;;;;15.57;13.98;;;13.30;99.90;;;;;;4966452;28;20556;-49
2023/09/04 05:41:15;;;;;;;15.88;14.27;;;13.50;99.90;;;;;;4949533;28;20043;-48
2023/09/04 05:43:41;;;;;;;17.45;14.85;;;14.00;99.90;;;;;;4947357;28;20078;-49
2023/09/04 05:46:06;;;;;;;16.25;14.68;;;14.70;99.90;;;;;;4947288;28;20098;-50
2023/09/04 05:48:35;;;;;;;15.93;13.63;;;15.10;99.90;;;;;;4946255;28;20406;-48
2023/09/04 05:51:01;;;;;;;14.27;12.70;;;15.20;99.90;;;;;;4947686;29;20074;-49
2023/09/04 05:53:28;;;;;;;13.38;12.05;;;15.30;99.90;;;;;;4946747;28;20190;-50
2023/09/04 05:56:09;;;;;;;14.60;12.82;;;15.30;99.90;;;;;;4954427;28;20055;-52
2023/09/04 05:58:43;;;;;;;15.45;12.43;;;15.20;99.90;;;;;;4954449;28;20574;-50
2023/09/04 06:01:08;;;;;;;15.23;11.43;;;15.10;99.90;;;;;;4956345;28;20197;-48
2023/09/04 06:03:34;;;;;;;13.65;12.05;;;15.00;99.90;;;;;;4955962;28;20424;-49
2023/09/04 06:05:59;;;;;;;12.98;11.77;;;14.90;99.90;;;;;;4956954;28;20043;-47
2023/09/04 06:08:25;;;;;;;12.98;11.65;;;15.10;99.90;;;;;;4956354;28;20043;-50
2023/09/04 06:10:51;;;;;;;14.07;12.52;;;15.10;99.90;;;;;;4958053;28;20527;-47
2023/09/04 06:13:17;;;;;;;15.40;11.93;;;15.20;99.90;;;;;;4949691;28;20126;-49
2023/09/04 06:15:43;;;;;;;13.25;11.07;;;15.70;99.90;;;;;;4946407;28;20067;-50
2023/09/04 06:18:08;;;;;;;12.05;10.85;;;16.00;99.90;;;;;;4953982;28;20049;-48
2023/09/04 06:20:34;;;;;;;11.32;10.13;;;16.30;99.90;;;;;;4965118;28;20050;-53
2023/09/04 06:23:01;;;;;;;11.73;9.63;;;16.80;99.90;;;;;;4955611;28;20580;-49
2023/09/04 06:25:27;;;;;;;11.85;8.48;;;17.30;99.90;;;;;;4955900;28;20078;-50
2023/09/04 06:27:52;;;;;;;10.27;7.28;;;17.80;99.90;;;;;;4945704;28;20059;-48
2023/09/04 06:30:18;;;;;;;9.68;7.53;;;18.40;99.90;;;;;;4947061;28;20039;-49
2023/09/04 06:32:44;;;;;;;9.70;6.93;;;18.70;99.90;;;;;;4946209;28;20046;-48
2023/09/04 06:35:09;;;;;;;9.63;7.70;;;19.00;99.90;;;;;;4946416;28;20054;-48
2023/09/04 06:37:35;;;;;;;9.00;7.28;;;19.30;99.90;;;;;;4945952;28;20039;-50
2023/09/04 06:40:02;;;;;;;7.95;6.88;;;19.70;99.90;;;;;;4945595;28;20069;-47
2023/09/04 06:42:27;;;;;;;8.65;6.85;;;20.00;99.90;;;;;;4946461;28;20051;-47
2023/09/04 06:44:53;;;;;;;7.53;6.00;;;20.20;99.90;;;;;;4944351;29;20050;-45
2023/09/04 06:47:18;;;;;;;7.47;6.10;;;20.40;99.90;;;;;;4946419;28;20062;-49
2023/09/04 06:49:44;;;;;;;9.23;6.03;;;20.60;99.90;;;;;;4948380;28;20034;-49
2023/09/04 06:52:10;;;;;;;11.18;6.78;;;20.90;99.90;;;;;;4956796;28;20130;-49
2023/09/04 06:54:35;;;;;;;7.30;6.22;;;21.00;99.90;;;;;;4957040;28;20579;-47
2023/09/04 06:57:02;;;;;;;10.02;6.40;;;21.00;99.90;;;;;;4957381;28;20171;-50
2023/09/04 06:59:27;;;;;;;7.32;5.65;;;21.10;99.90;;;;;;4962100;28;20051;-47
2023/09/04 07:01:53;;;;;;;8.57;6.07;;;21.20;99.90;;;;;;4952407;28;20050;-48
2023/09/04 07:04:18;;;;;;;8.35;5.93;;;21.40;99.90;;;;;;4945368;28;20118;-49
2023/09/04 07:06:44;;;;;;;10.35;6.30;;;21.50;99.90;;;;;;4946228;28;20141;-50
2023/09/04 07:09:10;;;;;;;6.07;5.43;;;21.40;99.90;;;;;;4945790;28;20050;-48
2023/09/04 07:11:36;;;;;;;11.05;5.95;;;21.30;99.90;;;;;;4944783;28;20121;-48
2023/09/04 07:14:02;;;;;;;6.55;5.85;;;21.00;99.90;;;;;;4945358;28;20106;-46
2023/09/04 07:16:28;;;;;;;7.10;6.35;;;20.90;99.90;;;;;;4944192;28;20501;-50
2023/09/04 07:18:54;;;;;;;7.50;6.28;;;21.00;99.90;;;;;;4944738;28;20047;-48
2023/09/04 07:21:20;;;;;;;7.68;6.55;;;20.90;99.90;;;;;;4944118;28;20043;-47
2023/09/04 07:23:46;;;;;;;6.28;5.68;;;20.70;99.90;;;;;;4945410;28;20371;-47
2023/09/04 07:26:11;;;;;;;6.88;5.78;;;20.70;99.90;;;;;;4945427;28;20043;-49
2023/09/04 07:28:37;;;;;;;7.88;5.63;;;20.90;99.90;;;;;;4943844;29;20047;-48
2023/09/04 07:31:19;;;;;;;6.00;5.40;;;20.90;99.90;;;;;;4945360;28;20603;-48
2023/09/04 07:33:49;;;;;;;9.48;5.68;;;20.80;99.90;;;;;;4944185;29;20491;-49
2023/09/04 07:36:16;;;;;;;6.80;5.82;;;20.70;99.90;;;;;;4943807;29;20093;-48
2023/09/04 07:38:43;;;;;;;8.20;5.55;;;20.80;99.90;;;;;;4945565;28;20066;-49
2023/09/04 07:41:09;;;;;;;7.65;5.60;;;20.90;99.90;;;;;;4944684;28;20055;-55
2023/09/04 07:43:34;;;;;;;6.60;5.43;;;21.30;99.90;;;;;;4943193;29;20059;-49
2023/09/04 07:46:00;;;;;;;6.68;5.20;;;21.40;99.90;;;;;;4945339;28;20050;-48
2023/09/04 07:48:27;;;;;;;7.55;5.88;;;21.50;99.90;;;;;;4945674;29;20047;-48
2023/09/04 07:50:52;;;;;;;6.35;5.75;;;21.60;99.90;;;;;;4945622;28;20054;-49
2023/09/04 07:53:19;;;;;;;6.55;5.22;;;21.40;99.90;;;;;;4944884;28;20397;-47
2023/09/04 07:55:45;;;;;;;7.25;5.72;;;21.40;99.90;;;;;;4948215;28;20042;-50
2023/09/04 07:58:11;;;;;;;10.32;5.93;;;21.30;99.90;;;;;;4952835;28;20040;-49
2023/09/04 08:00:42;;;;;;;10.20;4.97;;;21.50;99.90;;;;;;4945305;29;20039;-48
2023/09/04 08:03:07;;;;;;;7.88;5.85;;;21.70;99.90;;;;;;4944396;29;20094;-47
2023/09/04 08:05:33;;;;;;;8.60;6.47;;;22.10;99.90;;;;;;4945261;29;20307;-51
2023/09/04 08:07:59;;;;;;;7.57;6.88;;;22.30;99.90;;;;;;4944055;29;20039;-50
2023/09/04 08:10:24;;;;;;;7.15;5.78;;;22.50;99.90;;;;;;4943838;29;20176;-49
2023/09/04 08:12:50;;;;;;;7.30;6.60;;;22.60;99.60;;;;;;4947521;28;20122;-50
2023/09/04 08:15:16;;;;;;;7.88;6.20;;;22.50;99.70;;;;;;4949081;29;20094;-49
2023/09/04 08:17:43;;;;;;;6.85;6.20;;;22.00;99.90;;;;;;4948386;29;20441;-48
2023/09/04 08:20:09;;;;;;;7.85;6.65;;;21.60;99.90;;;;;;4949093;28;20098;-50
2023/09/04 08:22:35;;;;;;;7.57;6.60;;;20.90;99.90;;;;;;4948922;28;20043;-49
2023/09/04 08:25:01;;;;;;;7.00;6.30;;;20.50;99.90;;;;;;4952297;28;20057;-52
2023/09/04 08:27:26;;;;;;;6.25;5.65;;;20.40;99.90;;;;;;4952184;28;20051;-50
2023/09/04 08:29:52;;;;;;;6.30;5.40;;;20.30;99.90;;;;;;4968037;28;20612;-49
2023/09/04 08:32:18;;;;;;;7.95;5.50;;;20.20;99.90;;;;;;4968027;28;20046;-50
2023/09/04 08:34:43;;;;;;;5.88;5.28;;;20.10;99.90;;;;;;4960179;28;20042;-51
2023/09/04 08:37:09;;;;;;;6.00;5.30;;;20.10;99.90;;;;;;4967068;28;20054;-49
2023/09/04 08:39:34;;;;;;;5.25;4.75;;;20.10;99.90;;;;;;4964337;28;20506;-50
2023/09/04 08:42:02;;;;;;;6.40;5.22;;;20.20;99.90;;;;;;4967459;28;20386;-51
2023/09/04 08:44:30;;;;;;;6.45;5.20;;;20.10;99.90;;;;;;4965099;28;20081;-50
2023/09/04 08:46:58;;;;;;;6.05;5.45;;;20.10;99.90;;;;;;4967253;28;20039;-48
2023/09/04 08:49:25;;;;;;;8.25;6.15;;;20.30;99.90;;;;;;4967189;28;20043;-49
2023/09/04 08:51:52;;;;;;;6.40;5.65;;;20.40;99.90;;;;;;4966839;28;20118;-50
2023/09/04 08:54:18;;;;;;;5.78;5.13;;;20.50;99.90;;;;;;4946039;28;20051;-52
2023/09/04 08:56:44;;;;;;;5.75;5.15;;;20.90;99.90;;;;;;4957548;28;20376;-50
2023/09/04 08:59:10;;;;;;;7.22;4.85;;;21.40;99.90;;;;;;4953618;28;20089;-49
2023/09/04 09:01:37;;;;;;;7.00;4.00;;;22.00;99.90;;;;;;4960790;28;20533;-50
2023/09/04 09:04:04;;;;;;;6.13;4.00;;;22.50;99.90;;;;;;4958745;28;20082;-51
2023/09/04 09:06:30;;;;;;;5.15;3.78;;;23.00;99.90;;;;;;4946878;28;20051;-52
2023/09/04 09:08:58;;;;;;;5.50;3.70;;;23.40;99.20;;;;;;4946739;29;20053;-50
2023/09/04 09:11:24;;;;;;;4.13;3.72;;;23.70;98.30;;;;;;4947402;28;20050;-50
2023/09/04 09:13:50;;;;;;;5.10;4.60;;;23.70;97.60;;;;;;4955578;28;20051;-50
2023/09/04 09:16:19;;;;;;;5.07;4.45;;;23.70;96.90;;;;;;4966406;28;20406;-51
2023/09/04 09:18:46;;;;;;;6.13;4.68;;;23.60;97.00;;;;;;4948307;28;20457;-50
2023/09/04 09:21:27;;;;;;;6.53;4.75;;;23.50;96.50;;;;;;4952032;28;20057;-49
2023/09/04 09:24:28;;;;;;;5.50;4.45;;;23.30;97.20;;;;;;4964889;28;20094;-49
2023/09/04 09:26:55;;;;;;;5.65;4.20;;;23.10;97.40;;;;;;4892081;29;20083;-50
2023/09/04 09:29:20;;;;;;;5.15;4.13;;;23.10;97.40;;;;;;4941362;28;20059;-50
2023/09/04 09:31:46;;;;;;;6.93;4.38;;;23.10;96.90;;;;;;4946272;28;20393;-50
2023/09/04 09:34:12;;;;;;;5.97;4.00;;;23.20;97.30;;;;;;4946052;28;20045;-50
2023/09/04 09:36:38;;;;;;;7.03;4.38;;;23.40;97.50;;;;;;4950071;28;20086;-50
2023/09/04 09:39:05;;;;;;;4.95;4.43;;;23.50;97.40;;;;;;4949566;28;20043;-51
2023/09/04 09:41:31;;;;;;;5.03;4.40;;;23.70;97.50;;;;;;4950042;28;20035;-48
2023/09/04 09:44:06;;;;;;;5.50;4.15;;;24.00;98.10;;;;;;4965895;28;20826;-50
2023/09/04 09:46:35;;;;;;;5.60;4.03;;;24.30;97.10;;;;;;4964677;28;20061;-50
2023/09/04 09:49:01;;;;;;;4.97;3.50;;;24.40;96.00;;;;;;4953262;28;20047;-49
2023/09/04 09:51:28;;;;;;;3.80;3.40;;;24.30;96.60;;;;;;4946239;28;20051;-49
2023/09/04 09:53:54;;;;;;;7.05;3.55;;;24.30;96.80;;;;;;4943237;29;20055;-50
2023/09/04 09:56:20;;;;;;;5.03;3.47;;;24.50;97.10;;;;;;4956606;28;20600;-49
2023/09/04 09:58:48;;;;;;;4.00;3.13;;;24.60;96.20;;;;;;4947523;28;20051;-52
2023/09/04 10:01:14;;;;;;;5.05;2.58;;;24.50;94.80;;;;;;4946087;28;20039;-51
2023/09/04 10:03:40;;;;;;;5.45;2.50;;;24.20;95.20;;;;;;4944240;29;20062;-50
2023/09/04 10:06:08;;;;;;;4.13;2.88;;;24.10;95.80;;;;;;4952469;28;20039;-49
2023/09/04 10:08:42;;;;;;;4.85;2.72;;;24.30;95.20;;;;;;4956919;28;20106;-49
2023/09/04 10:11:11;;;;;;;4.22;2.53;;;24.40;95.90;;;;;;4940901;29;20645;-51
2023/09/04 10:13:49;;;;;;;5.07;2.60;;;24.50;94.60;;;;;;4954425;28;20078;-51
2023/09/04 10:16:28;;;;;;;5.53;2.63;;;24.50;95.00;;;;;;4964748;28;20082;-50
2023/09/04 10:18:56;;;;;;;3.72;2.90;;;24.50;94.70;;;;;;4964382;28;20086;-52
2023/09/04 10:21:26;;;;;;;4.63;2.58;;;24.50;94.40;;;;;;4964598;28;20122;-51
2023/09/04 10:23:58;;;;;;;4.95;2.90;;;24.50;94.70;;;;;;4962843;28;20054;-48
2023/09/04 10:26:35;;;;;;;3.00;2.22;;;24.50;94.60;;;;;;4965290;28;20050;-52
2023/09/04 10:29:04;;;;;;;5.25;2.55;;;24.60;94.80;;;;;;4964637;28;20096;-48
2023/09/04 10:31:35;;;;;;;4.20;2.92;;;24.60;94.60;;;;;;4963322;28;20054;-49
2023/09/04 10:34:02;;;;;;;3.40;2.63;;;24.60;94.80;;;;;;4947951;28;20078;-50
2023/09/04 10:36:29;;;;;;;3.45;2.20;;;24.70;94.60;;;;;;4944972;29;20047;-51
2023/09/04 10:38:56;;;;;;;4.03;2.30;;;24.80;94.60;;;;;;4942700;29;20323;-53
2023/09/04 10:41:22;;;;;;;7.07;2.58;;;25.10;94.80;;;;;;4963555;28;20039;-52
2023/09/04 10:43:48;;;;;;;6.35;2.70;;;25.40;94.70;;;;;;4964665;28;20080;-48
2023/09/04 10:46:13;;;;;;;5.30;2.72;;;25.60;94.30;;;;;;4964411;28;20045;-52
2023/09/04 10:48:50;;;;;;;2.95;2.40;;;25.70;93.80;;;;;;4963450;28;20047;-52
2023/09/04 10:51:29;;;;;;;2.90;2.35;;;25.70;93.90;;;;;;4965999;28;20054;-49
2023/09/04 10:53:56;;;;;;;3.28;1.98;;;25.70;93.90;;;;;;4963318;28;20136;-52
2023/09/04 10:56:22;;;;;;;4.47;2.28;;;25.70;92.90;;;;;;4955915;28;20067;-51
2023/09/04 10:59:05;;;;;;;2.97;2.10;;;25.60;92.30;;;;;;4946332;28;20159;-51
2023/09/04 11:01:36;;;;;;;4.28;2.00;;;25.40;93.00;;;;;;4945439;29;20130;-53
2023/09/04 11:04:03;;;;;;;3.20;2.05;;;25.50;93.00;;;;;;4945248;28;20054;-53
2023/09/04 11:06:32;;;;;;;4.18;2.20;;;25.60;92.50;;;;;;4961661;28;20672;-52
2023/09/04 11:09:02;;;;;;;4.57;2.70;;;25.50;92.70;;;;;;4962295;28;20046;-53
2023/09/04 11:11:27;;;;;;;4.85;2.60;;;25.30;92.90;;;;;;4964777;28;20624;-52
2023/09/04 11:14:12;;;;;;;3.22;2.10;;;25.30;93.60;;;;;;4965022;28;20066;-51
2023/09/04 11:16:42;;;;;;;3.20;1.95;;;25.60;93.80;;;;;;4964864;28;20043;-54
2023/09/04 11:19:14;;;;;;;6.63;2.13;;;25.90;93.00;;;;;;4964370;28;20085;-52
2023/09/04 11:21:43;;;;;;;3.15;1.90;;;26.00;92.70;;;;;;4963904;28;20178;-53
2023/09/04 11:24:08;;;;;;;3.53;1.85;;;26.30;92.90;;;;;;4961713;28;20046;-52
2023/09/04 11:26:34;;;;;;;6.75;2.70;;;26.40;93.00;;;;;;4963533;28;20516;-49
2023/09/04 11:29:02;;;;;;;5.25;1.92;;;26.40;92.50;;;;;;4963112;28;20066;-50
2023/09/04 11:31:30;;;;;;;2.95;2.33;;;26.40;92.60;;;;;;4948416;28;20035;-50
2023/09/04 11:33:56;;;;;;;4.10;2.60;;;26.50;92.00;;;;;;4949734;28;20457;-54
2023/09/04 11:36:22;;;;;;;4.63;2.28;;;26.30;92.60;;;;;;4957846;28;20128;-53
2023/09/04 11:39:06;;;;;;;3.40;1.98;;;26.40;92.40;;;;;;4962877;28;20042;-53
2023/09/04 11:41:32;;;;;;;2.67;1.77;;;26.30;92.50;;;;;;4964350;28;20039;-55
2023/09/04 11:43:58;;;;;;;4.80;2.00;;;26.40;91.80;;;;;;4963917;28;20039;-55
2023/09/04 11:46:25;;;;;;;3.10;1.98;;;26.30;91.80;;;;;;4964283;28;20047;-52
2023/09/04 11:48:50;;;;;;;5.97;2.17;;;26.30;92.00;;;;;;4968635;28;20043;-52
2023/09/04 11:51:16;;;;;;;3.30;2.40;;;26.20;92.20;;;;;;4968747;28;20054;-54
2023/09/04 11:53:43;;;;;;;3.22;2.20;;;26.20;91.90;;;;;;4966729;28;20537;-52
2023/09/04 11:56:10;;;;;;;5.63;2.25;;;26.00;92.70;;;;;;4962435;28;20050;-52
2023/09/04 11:58:36;;;;;;;4.03;2.63;;;25.90;93.20;;;;;;4953022;28;20043;-53
2023/09/04 12:01:02;;;;;;;3.92;2.30;;;26.00;93.20;;;;;;4947444;28;20367;-53
2023/09/04 12:03:28;;;;;;;4.50;2.25;;;26.10;92.10;;;;;;4948531;29;20050;-54
2023/09/04 12:05:54;;;;;;;5.38;2.60;;;26.20;91.70;;;;;;4949034;29;20043;-54
2023/09/04 12:08:20;;;;;;;3.35;2.08;;;26.10;91.50;;;;;;4950197;28;20138;-53
2023/09/04 12:10:46;;;;;;;5.68;2.08;;;26.00;92.50;;;;;;4948008;29;20134;-55
2023/09/04 12:13:12;;;;;;;3.25;1.95;;;26.00;92.30;;;;;;4948584;29;20055;-51
2023/09/04 12:15:38;;;;;;;3.97;2.10;;;26.00;92.00;;;;;;4948745;28;20077;-54
2023/09/04 12:18:05;;;;;;;2.88;1.83;;;26.10;92.00;;;;;;4946893;29;20043;-52
2023/09/04 12:20:34;;;;;;;2.85;2.10;;;26.10;91.60;;;;;;4948775;28;20044;-52
2023/09/04 12:23:00;;;;;;;4.53;2.10;;;26.00;92.20;;;;;;4948852;28;20087;-52
2023/09/04 12:25:32;;;;;;;6.72;2.00;;;26.20;91.90;;;;;;4947432;29;20438;-55
2023/09/04 12:27:57;;;;;;;2.22;1.50;;;26.30;91.70;;;;;;4948655;28;20054;-52
2023/09/04 12:30:24;;;;;;;3.97;1.88;;;26.20;91.70;;;;;;4949039;29;20402;-51
2023/09/04 12:32:50;;;;;;;3.03;2.25;;;26.30;91.50;;;;;;4949154;28;20670;-55
2023/09/04 12:35:18;;;;;;;3.28;2.40;;;26.30;91.70;;;;;;4948085;28;20039;-54
2023/09/04 12:37:43;;;;;;;4.95;2.00;;;26.30;92.00;;;;;;4948553;28;20047;-52